createdAt,value
2023-05-11T00:00:19.432Z,11.90
2023-05-11T00:02:21.293Z,11.90
2023-05-11T00:04:23.027Z,11.90
2023-05-11T00:06:24.750Z,11.90
2023-05-11T00:08:26.782Z,11.80
2023-05-11T00:10:28.899Z,11.90
2023-05-11T00:12:30.525Z,12.00
2023-05-11T00:14:32.235Z,11.90
2023-05-11T00:16:33.920Z,11.90
2023-05-11T00:18:35.768Z,11.90
2023-05-11T00:20:37.551Z,11.90
2023-05-11T00:22:39.322Z,11.90
2023-05-11T00:24:41.058Z,11.80
2023-05-11T00:26:42.724Z,11.80
2023-05-11T00:28:45.302Z,11.80
2023-05-11T00:30:46.935Z,11.70
2023-05-11T00:32:51.390Z,11.80
2023-05-11T00:34:53.155Z,11.80
2023-05-11T00:36:55.119Z,11.80
2023-05-11T00:38:56.752Z,11.80
2023-05-11T00:40:58.488Z,11.80
2023-05-11T00:43:00.389Z,11.80
2023-05-11T00:45:02.545Z,11.90
2023-05-11T00:47:04.790Z,11.80
2023-05-11T00:49:07.173Z,11.80
2023-05-11T00:51:09.035Z,11.80
2023-05-11T00:53:11.461Z,11.80
2023-05-11T00:55:13.720Z,11.80
2023-05-11T00:57:15.473Z,11.70
2023-05-11T00:59:17.172Z,11.70
2023-05-11T01:01:19.186Z,11.70
2023-05-11T01:03:21.228Z,11.70
2023-05-11T01:05:25.096Z,11.70
2023-05-11T01:07:32.262Z,11.70
2023-05-11T01:09:52.505Z,11.70
2023-05-11T01:12:00.428Z,11.70
2023-05-11T01:14:20.149Z,11.70
2023-05-11T01:16:24.451Z,11.70
2023-05-11T01:18:28.625Z,11.70
2023-05-11T01:20:30.714Z,11.70
2023-05-11T01:22:32.409Z,11.70
2023-05-11T01:24:36.798Z,11.60
2023-05-11T01:26:59.461Z,11.60
2023-05-11T01:29:27.288Z,11.70
2023-05-11T01:31:31.055Z,11.70
2023-05-11T01:33:34.083Z,11.70
2023-05-11T01:35:37.723Z,11.70
2023-05-11T01:37:41.475Z,11.70
2023-05-11T01:39:48.822Z,11.80
2023-05-11T01:41:52.250Z,11.70
2023-05-11T01:43:55.625Z,11.70
2023-05-11T01:45:59.993Z,11.70
2023-05-11T01:48:04.269Z,11.70
2023-05-11T01:50:07.392Z,11.70
2023-05-11T01:52:09.846Z,11.70
2023-05-11T01:54:12.066Z,11.70
2023-05-11T01:56:14.575Z,11.70
2023-05-11T01:58:17.131Z,11.70
2023-05-11T02:00:19.113Z,11.70
2023-05-11T02:02:21.639Z,11.60
2023-05-11T02:04:23.724Z,11.70
2023-05-11T02:06:27.002Z,11.60
2023-05-11T02:08:30.035Z,11.60
2023-05-11T02:10:33.180Z,11.60
2023-05-11T02:12:35.558Z,11.60
2023-05-11T02:14:37.783Z,11.70
2023-05-11T02:16:39.919Z,11.60
2023-05-11T02:18:42.369Z,11.60
2023-05-11T02:20:45.241Z,11.60
2023-05-11T02:22:47.228Z,11.60
2023-05-11T02:24:49.152Z,11.60
2023-05-11T02:26:50.977Z,11.60
2023-05-11T02:28:52.621Z,11.60
2023-05-11T02:31:00.425Z,11.60
2023-05-11T02:33:05.768Z,11.60
2023-05-11T02:35:10.034Z,11.60
2023-05-11T02:37:18.033Z,11.60
2023-05-11T02:39:22.039Z,11.60
2023-05-11T02:41:26.031Z,11.60
2023-05-11T02:43:30.746Z,11.60
2023-05-11T02:45:33.498Z,11.60
2023-05-11T02:47:39.842Z,11.50
2023-05-11T02:49:43.546Z,11.50
2023-05-11T02:51:46.038Z,11.60
2023-05-11T02:53:48.846Z,11.60
2023-05-11T02:55:50.878Z,11.50
2023-05-11T02:57:52.606Z,11.50
2023-05-11T02:59:54.369Z,11.50
2023-05-11T03:01:56.828Z,11.50
2023-05-11T03:03:58.744Z,11.50
2023-05-11T03:06:00.720Z,11.50
2023-05-11T03:08:02.412Z,11.60
2023-05-11T03:10:04.405Z,11.50
2023-05-11T03:12:06.683Z,11.50
2023-05-11T03:14:08.598Z,11.50
2023-05-11T03:16:12.691Z,11.50
2023-05-11T03:18:15.040Z,11.50
2023-05-11T03:20:17.713Z,11.50
2023-05-11T03:22:20.337Z,11.60
2023-05-11T03:24:22.310Z,11.60
2023-05-11T03:26:27.284Z,11.60
2023-05-11T03:28:29.705Z,11.60
2023-05-11T03:30:31.891Z,11.50
2023-05-11T03:32:34.204Z,11.50
2023-05-11T03:34:35.965Z,11.50
2023-05-11T03:36:38.494Z,11.50
2023-05-11T03:38:40.394Z,11.50
2023-05-11T03:40:42.645Z,11.50
2023-05-11T03:42:44.752Z,11.50
2023-05-11T03:44:47.560Z,11.50
2023-05-11T03:46:50.536Z,11.50
2023-05-11T03:48:52.636Z,11.50
2023-05-11T03:50:54.444Z,11.50
2023-05-11T03:52:56.349Z,11.50
2023-05-11T03:54:58.234Z,11.50
2023-05-11T03:56:59.953Z,11.50
2023-05-11T03:59:02.490Z,11.50
2023-05-11T04:01:04.260Z,11.50
2023-05-11T04:03:09.056Z,11.50
2023-05-11T04:05:11.132Z,11.50
2023-05-11T04:07:13.084Z,11.60
2023-05-11T04:09:14.961Z,11.60
2023-05-11T04:11:16.708Z,11.60
2023-05-11T04:13:18.363Z,11.60
2023-05-11T04:15:20.584Z,11.60
2023-05-11T04:17:22.327Z,11.60
2023-05-11T04:19:23.957Z,11.60
2023-05-11T04:21:25.586Z,11.60
2023-05-11T04:23:27.376Z,11.70
2023-05-11T04:25:29.039Z,11.60
2023-05-11T04:27:34.349Z,11.60
2023-05-11T04:29:36.138Z,11.60
2023-05-11T04:31:37.976Z,11.60
2023-05-11T04:33:39.660Z,11.60
2023-05-11T04:35:41.361Z,11.60
2023-05-11T04:37:43.285Z,11.60
2023-05-11T04:39:44.961Z,11.60
2023-05-11T04:41:46.638Z,11.60
2023-05-11T04:43:48.297Z,11.60
2023-05-11T04:45:50.551Z,11.60
2023-05-11T04:47:52.313Z,11.60
2023-05-11T04:49:54.048Z,11.70
2023-05-11T04:51:55.795Z,11.70
2023-05-11T04:53:57.597Z,11.70
2023-05-11T04:55:59.337Z,11.70
2023-05-11T04:58:01.067Z,11.70
2023-05-11T05:00:03.989Z,11.70
2023-05-11T05:02:05.725Z,11.80
2023-05-11T05:04:08.100Z,11.80
2023-05-11T05:06:09.850Z,11.80
2023-05-11T05:08:11.516Z,11.80
2023-05-11T05:10:13.470Z,11.80
2023-05-11T05:12:15.502Z,11.90
2023-05-11T05:14:17.186Z,11.90
2023-05-11T05:16:18.891Z,12.00
2023-05-11T05:18:20.695Z,12.00
2023-05-11T05:20:22.395Z,12.00
2023-05-11T05:22:24.753Z,12.10
2023-05-11T05:24:26.536Z,12.10
2023-05-11T05:26:29.063Z,12.10
2023-05-11T05:28:30.790Z,12.10
2023-05-11T05:30:32.886Z,12.10
2023-05-11T05:32:34.666Z,12.20
2023-05-11T05:34:36.370Z,12.20
2023-05-11T05:36:39.169Z,12.20
2023-05-11T05:38:40.874Z,12.30
2023-05-11T05:40:42.526Z,12.30
2023-05-11T05:42:44.268Z,12.30
2023-05-11T05:44:46.064Z,12.40
2023-05-11T05:46:47.814Z,12.40
2023-05-11T05:48:49.622Z,12.50
2023-05-11T05:50:51.573Z,12.50
2023-05-11T05:52:53.421Z,12.50
2023-05-11T05:54:55.167Z,12.60
2023-05-11T05:56:56.932Z,12.80
2023-05-11T05:58:58.819Z,12.80
2023-05-11T06:01:00.885Z,12.90
2023-05-11T06:03:02.663Z,12.90
2023-05-11T06:05:04.823Z,13.00
2023-05-11T06:07:06.562Z,12.90
2023-05-11T06:09:08.322Z,12.80
2023-05-11T06:11:10.026Z,12.80
2023-05-11T06:13:11.796Z,12.80
2023-05-11T06:15:13.689Z,12.80
2023-05-11T06:17:15.420Z,12.80
2023-05-11T06:19:17.160Z,12.80
2023-05-11T06:21:19.016Z,12.90
2023-05-11T06:23:20.983Z,12.90
2023-05-11T06:25:22.962Z,12.90
2023-05-11T06:27:24.763Z,12.80
2023-05-11T06:29:26.369Z,12.90
2023-05-11T06:31:29.370Z,12.90
2023-05-11T06:33:31.081Z,12.90
2023-05-11T06:35:32.883Z,12.90
2023-05-11T06:37:35.487Z,12.90
2023-05-11T06:39:38.664Z,12.90
2023-05-11T06:41:41.587Z,12.90
2023-05-11T06:43:48.019Z,12.80
2023-05-11T06:45:50.181Z,12.80
2023-05-11T06:47:51.912Z,12.90
2023-05-11T06:49:53.721Z,12.90
2023-05-11T06:51:55.365Z,12.90
2023-05-11T06:53:57.098Z,12.90
2023-05-11T06:55:58.785Z,12.90
2023-05-11T06:58:00.446Z,13.00
2023-05-11T07:00:02.202Z,13.10
2023-05-11T07:02:04.092Z,13.00
2023-05-11T07:04:06.192Z,13.00
2023-05-11T07:06:08.112Z,13.00
2023-05-11T07:08:09.846Z,12.90
2023-05-11T07:10:11.584Z,12.90
2023-05-11T07:12:13.318Z,12.80
2023-05-11T07:14:15.116Z,12.80
2023-05-11T07:16:16.837Z,12.80
2023-05-11T07:18:18.611Z,12.90
2023-05-11T07:20:20.615Z,12.80
2023-05-11T07:22:22.544Z,12.80
2023-05-11T07:24:24.217Z,12.70
2023-05-11T07:26:26.022Z,12.70
2023-05-11T07:28:27.798Z,12.70
2023-05-11T07:30:31.141Z,12.80
2023-05-11T07:32:33.262Z,12.80
2023-05-11T07:34:34.970Z,12.80
2023-05-11T07:36:36.646Z,12.70
2023-05-11T07:38:38.634Z,12.70
2023-05-11T07:40:40.405Z,12.70
2023-05-11T07:42:42.094Z,12.70
2023-05-11T07:44:43.875Z,12.70
2023-05-11T07:46:45.666Z,12.80
2023-05-11T07:48:47.794Z,12.80
2023-05-11T07:50:49.673Z,12.90
2023-05-11T07:52:51.443Z,12.90
2023-05-11T07:54:53.081Z,12.90
2023-05-11T07:56:54.765Z,12.80
2023-05-11T07:58:56.466Z,12.80
2023-05-11T08:00:58.357Z,12.90
2023-05-11T08:03:00.452Z,12.90
2023-05-11T08:05:02.361Z,12.90
2023-05-11T08:07:04.485Z,13.00
2023-05-11T08:09:06.194Z,13.00
2023-05-11T08:11:07.987Z,13.10
2023-05-11T08:13:09.781Z,13.10
2023-05-11T08:15:11.679Z,13.30
2023-05-11T08:17:13.458Z,13.20
2023-05-11T08:19:15.229Z,13.20
2023-05-11T08:21:17.562Z,13.10
2023-05-11T08:23:19.491Z,13.10
2023-05-11T08:25:21.185Z,12.80
2023-05-11T08:27:22.919Z,12.90
2023-05-11T08:29:27.397Z,13.00
2023-05-11T08:31:29.170Z,13.10
2023-05-11T08:33:38.064Z,13.20
2023-05-11T08:35:40.518Z,13.00
2023-05-11T08:37:42.196Z,13.20
2023-05-11T08:39:47.605Z,13.20
2023-05-11T08:41:51.357Z,13.30
2023-05-11T08:43:55.501Z,13.30
2023-05-11T08:46:00.718Z,13.30
2023-05-11T08:48:03.416Z,13.10
2023-05-11T08:50:05.318Z,13.00
2023-05-11T08:52:07.952Z,13.20
2023-05-11T08:54:09.769Z,13.30
2023-05-11T08:56:11.873Z,13.50
2023-05-11T08:58:19.328Z,13.50
2023-05-11T09:00:23.114Z,13.40
2023-05-11T09:02:25.328Z,13.40
2023-05-11T09:04:27.334Z,13.50
2023-05-11T09:06:29.395Z,13.60
2023-05-11T09:08:31.768Z,13.30
2023-05-11T09:10:33.548Z,13.30
2023-05-11T09:12:35.847Z,13.40
2023-05-11T09:14:37.958Z,13.30
2023-05-11T09:16:39.702Z,13.40
2023-05-11T09:18:51.290Z,13.30
2023-05-11T09:20:52.975Z,13.30
2023-05-11T09:22:55.483Z,13.40
2023-05-11T09:24:57.359Z,13.20
2023-05-11T09:27:09.098Z,13.20
2023-05-11T09:29:11.681Z,13.40
2023-05-11T09:31:13.481Z,13.50
2023-05-11T09:33:21.046Z,13.50
2023-05-11T09:35:33.319Z,13.60
2023-05-11T09:37:34.996Z,13.40
2023-05-11T09:39:44.672Z,13.50
2023-05-11T09:41:50.313Z,13.40
2023-05-11T09:43:53.228Z,13.40
2023-05-11T09:45:56.240Z,13.70
2023-05-11T09:47:58.175Z,14.00
2023-05-11T09:49:59.858Z,14.00
2023-05-11T09:52:01.585Z,14.10
2023-05-11T09:54:16.824Z,13.80
2023-05-11T09:56:18.567Z,14.00
2023-05-11T09:58:20.728Z,13.90
2023-05-11T10:00:22.942Z,12.90
2023-05-11T10:02:24.854Z,12.40
2023-05-11T10:04:29.827Z,12.30
2023-05-11T10:06:58.174Z,12.60
2023-05-11T10:09:08.293Z,12.00
2023-05-11T10:11:10.141Z,12.00
2023-05-11T10:13:12.130Z,12.30
2023-05-11T10:15:14.463Z,12.50
2023-05-11T10:17:16.939Z,12.60
2023-05-11T10:19:18.886Z,12.50
2023-05-11T10:21:21.091Z,12.60
2023-05-11T10:23:23.134Z,12.00
2023-05-11T10:25:26.478Z,12.00
2023-05-11T10:27:29.293Z,12.00
2023-05-11T10:29:31.703Z,12.30
2023-05-11T10:31:33.530Z,12.40
2023-05-11T10:33:35.879Z,12.50
2023-05-11T10:35:38.096Z,12.60
2023-05-11T10:37:40.558Z,12.50
2023-05-11T10:39:43.437Z,12.60
2023-05-11T10:41:50.353Z,12.60
2023-05-11T10:44:27.368Z,12.50
2023-05-11T10:46:30.465Z,12.40
2023-05-11T10:48:47.833Z,12.30
2023-05-11T10:51:01.901Z,12.20
2023-05-11T10:53:11.590Z,12.10
2023-05-11T10:55:22.318Z,12.40
2023-05-11T10:57:43.097Z,12.50
2023-05-11T10:59:53.950Z,12.80
2023-05-11T11:01:59.090Z,12.80
2023-05-11T11:04:05.318Z,12.60
2023-05-11T11:06:21.467Z,12.60
2023-05-11T11:08:23.905Z,12.60
2023-05-11T11:10:51.682Z,12.20
2023-05-11T11:13:06.083Z,12.10
2023-05-11T11:15:08.034Z,12.40
2023-05-11T11:17:17.020Z,12.20
2023-05-11T11:19:32.207Z,12.60
2023-05-11T11:21:44.139Z,12.50
2023-05-11T11:23:56.748Z,11.90
2023-05-11T11:25:58.639Z,12.20
2023-05-11T11:28:00.381Z,12.60
2023-05-11T11:30:21.248Z,12.50
2023-05-11T11:32:23.220Z,12.60
2023-05-11T11:34:28.924Z,12.70
2023-05-11T11:36:49.345Z,12.60
2023-05-11T11:38:58.588Z,12.60
2023-05-11T11:41:00.320Z,12.60
2023-05-11T11:43:21.155Z,12.50
2023-05-11T11:45:34.212Z,12.30
2023-05-11T11:47:36.451Z,12.20
2023-05-11T11:49:38.812Z,12.70
2023-05-11T11:51:41.407Z,12.60
2023-05-11T11:53:44.587Z,12.60
2023-05-11T11:55:52.751Z,12.70
2023-05-11T11:57:54.419Z,12.80
2023-05-11T11:59:56.203Z,12.00
2023-05-11T12:01:59.828Z,12.10
2023-05-11T12:04:05.390Z,12.40
2023-05-11T12:06:09.083Z,12.00
2023-05-11T12:08:12.793Z,12.10
2023-05-11T12:10:14.878Z,12.50
2023-05-11T12:12:26.609Z,12.40
2023-05-11T12:14:28.378Z,12.30
2023-05-11T12:16:30.271Z,12.50
2023-05-11T12:18:32.046Z,12.70
2023-05-11T12:20:33.777Z,12.00
2023-05-11T12:22:36.264Z,12.00
2023-05-11T12:24:39.489Z,11.60
2023-05-11T12:26:41.207Z,12.10
2023-05-11T12:28:45.983Z,12.60
2023-05-11T12:30:54.522Z,12.40
2023-05-11T12:32:57.497Z,12.20
2023-05-11T12:35:00.441Z,11.70
2023-05-11T12:37:06.038Z,12.30
2023-05-11T12:39:10.584Z,12.20
2023-05-11T12:41:18.953Z,11.80
2023-05-11T12:43:21.245Z,12.10
2023-05-11T12:45:24.739Z,12.20
2023-05-11T12:47:26.505Z,12.30
2023-05-11T12:49:28.884Z,12.60
2023-05-11T12:51:42.126Z,12.60
2023-05-11T12:53:44.899Z,12.40
2023-05-11T12:55:57.438Z,12.60
2023-05-11T12:58:15.229Z,13.00
2023-05-11T13:00:18.088Z,13.40
2023-05-11T13:02:20.999Z,12.90
2023-05-11T13:04:32.326Z,13.10
2023-05-11T13:06:34.064Z,12.70
2023-05-11T13:08:40.064Z,12.80
2023-05-11T13:10:42.022Z,13.00
2023-05-11T13:12:51.820Z,12.90
2023-05-11T13:15:08.431Z,13.00
2023-05-11T13:17:10.161Z,12.70
2023-05-11T13:19:12.352Z,12.20
2023-05-11T13:21:14.080Z,12.90
2023-05-11T13:23:16.265Z,13.10
2023-05-11T13:25:21.682Z,13.40
2023-05-11T13:27:23.654Z,12.70
2023-05-11T13:29:25.487Z,13.30
2023-05-11T13:31:28.357Z,13.40
2023-05-11T13:33:31.046Z,13.50
2023-05-11T13:35:32.698Z,13.30
2023-05-11T13:37:34.884Z,13.40
2023-05-11T13:39:36.686Z,13.00
2023-05-11T13:41:38.623Z,13.20
2023-05-11T13:43:40.260Z,13.40
2023-05-11T13:45:42.067Z,13.80
2023-05-11T13:47:45.632Z,13.90
2023-05-11T13:49:48.998Z,13.80
2023-05-11T13:51:51.593Z,14.30
2023-05-11T13:53:53.356Z,13.90
2023-05-11T13:55:55.240Z,13.30
2023-05-11T13:57:57.313Z,13.40
2023-05-11T13:59:59.062Z,13.60
2023-05-11T14:02:01.946Z,14.10
2023-05-11T14:04:04.298Z,14.30
2023-05-11T14:06:06.159Z,14.50
2023-05-11T14:08:07.873Z,13.90
2023-05-11T14:10:11.046Z,14.20
2023-05-11T14:12:12.724Z,14.30
2023-05-11T14:14:14.471Z,14.30
2023-05-11T14:16:16.209Z,13.50
2023-05-11T14:18:18.137Z,13.60
2023-05-11T14:20:20.223Z,13.90
2023-05-11T14:22:22.039Z,14.00
2023-05-11T14:24:23.713Z,13.70
2023-05-11T14:26:27.468Z,13.70
2023-05-11T14:28:29.132Z,13.70
2023-05-11T14:30:31.119Z,13.50
2023-05-11T14:32:32.875Z,12.90
2023-05-11T14:34:36.534Z,12.70
2023-05-11T14:36:39.407Z,13.10
2023-05-11T14:38:41.188Z,13.50
2023-05-11T14:40:42.859Z,13.60
2023-05-11T14:42:44.558Z,13.70
2023-05-11T14:44:46.409Z,13.40
2023-05-11T14:46:48.154Z,13.90
2023-05-11T14:48:52.428Z,13.70
2023-05-11T14:50:54.736Z,14.30
2023-05-11T14:52:56.511Z,14.30
2023-05-11T14:54:59.096Z,14.50
2023-05-11T14:57:00.759Z,14.80
2023-05-11T14:59:02.392Z,14.90
2023-05-11T15:01:04.937Z,14.40
2023-05-11T15:03:10.948Z,14.50
2023-05-11T15:05:12.800Z,15.10
2023-05-11T15:07:14.605Z,15.40
2023-05-11T15:09:16.296Z,15.60
2023-05-11T15:11:18.359Z,15.30
2023-05-11T15:13:22.084Z,14.90
2023-05-11T15:15:24.101Z,14.50
2023-05-11T15:17:26.893Z,14.80
2023-05-11T15:19:28.618Z,14.80
2023-05-11T15:21:32.158Z,14.80
2023-05-11T15:23:33.828Z,14.40
2023-05-11T15:25:36.016Z,14.20
2023-05-11T15:27:46.887Z,14.20
2023-05-11T15:29:49.768Z,13.80
2023-05-11T15:31:53.322Z,14.00
2023-05-11T15:33:55.062Z,14.30
2023-05-11T15:35:56.982Z,14.40
2023-05-11T15:37:58.609Z,14.50
2023-05-11T15:40:00.599Z,14.60
2023-05-11T15:42:02.909Z,14.30
2023-05-11T15:44:04.649Z,14.20
2023-05-11T15:46:07.635Z,14.30
2023-05-11T15:48:09.744Z,14.30
2023-05-11T15:50:11.535Z,14.40
2023-05-11T15:52:13.278Z,14.30
2023-05-11T15:54:15.017Z,14.00
2023-05-11T15:56:16.921Z,14.20
2023-05-11T15:58:18.693Z,14.20
2023-05-11T16:00:21.047Z,14.30
2023-05-11T16:02:23.042Z,14.40
2023-05-11T16:04:24.918Z,14.60
2023-05-11T16:06:27.740Z,14.60
2023-05-11T16:08:29.408Z,14.60
2023-05-11T16:10:31.180Z,14.60
2023-05-11T16:12:32.843Z,14.70
2023-05-11T16:14:34.506Z,14.80
2023-05-11T16:16:36.258Z,14.80
2023-05-11T16:18:39.162Z,14.90
2023-05-11T16:20:40.933Z,15.00
2023-05-11T16:22:42.758Z,15.00
2023-05-11T16:24:44.616Z,14.90
2023-05-11T16:26:46.285Z,14.80
2023-05-11T16:28:47.982Z,14.90
2023-05-11T16:30:49.695Z,14.90
2023-05-11T16:32:51.590Z,14.90
2023-05-11T16:34:53.412Z,14.70
2023-05-11T16:36:56.666Z,14.60
2023-05-11T16:38:59.733Z,14.70
2023-05-11T16:41:01.777Z,14.60
2023-05-11T16:43:05.477Z,14.50
2023-05-11T16:45:15.069Z,14.80
2023-05-11T16:47:17.496Z,15.00
2023-05-11T16:49:27.390Z,15.00
2023-05-11T16:51:29.391Z,15.00
2023-05-11T16:53:32.248Z,15.10
2023-05-11T16:55:36.032Z,15.00
2023-05-11T16:57:38.839Z,14.90
2023-05-11T16:59:40.557Z,14.90
2023-05-11T17:01:42.390Z,14.90
2023-05-11T17:03:44.177Z,14.90
2023-05-11T17:05:46.062Z,14.80
2023-05-11T17:07:47.835Z,14.80
2023-05-11T17:09:52.142Z,14.80
2023-05-11T17:11:54.994Z,14.70
2023-05-11T17:13:59.803Z,14.60
2023-05-11T17:16:02.575Z,14.60
2023-05-11T17:18:04.371Z,14.60
2023-05-11T17:20:07.954Z,14.60
2023-05-11T17:22:09.866Z,14.60
2023-05-11T17:24:11.681Z,14.60
2023-05-11T17:26:13.544Z,14.50
2023-05-11T17:28:15.335Z,14.50
2023-05-11T17:30:17.697Z,14.50
2023-05-11T17:32:19.795Z,14.50
2023-05-11T17:34:22.992Z,14.40
2023-05-11T17:36:29.936Z,14.30
2023-05-11T17:38:32.129Z,14.30
2023-05-11T17:40:33.864Z,14.20
2023-05-11T17:42:35.486Z,14.20
2023-05-11T17:44:37.702Z,14.20
2023-05-11T17:46:39.380Z,14.10
2023-05-11T17:48:41.089Z,14.10
2023-05-11T17:50:44.247Z,14.10
2023-05-11T17:52:47.675Z,14.00
2023-05-11T17:54:51.409Z,13.90
2023-05-11T17:56:53.742Z,13.90
2023-05-11T17:58:56.182Z,13.80
2023-05-11T18:00:58.051Z,13.80
2023-05-11T18:02:59.872Z,13.90
2023-05-11T18:05:01.864Z,13.90
2023-05-11T18:07:03.928Z,13.70
2023-05-11T18:09:05.952Z,13.80
2023-05-11T18:11:10.146Z,13.80
2023-05-11T18:13:11.970Z,13.80
2023-05-11T18:15:16.582Z,13.60
2023-05-11T18:17:21.935Z,13.60
2023-05-11T18:19:24.686Z,13.60
2023-05-11T18:21:29.410Z,13.60
2023-05-11T18:23:34.005Z,13.50
2023-05-11T18:25:35.807Z,13.60
2023-05-11T18:27:40.604Z,13.50
2023-05-11T18:29:46.266Z,13.40
2023-05-11T18:31:48.521Z,13.40
2023-05-11T18:33:51.336Z,13.30
2023-05-11T18:35:53.173Z,13.30
2023-05-11T18:37:55.472Z,13.30
2023-05-11T18:39:58.284Z,13.30
2023-05-11T18:42:01.330Z,13.30
2023-05-11T18:44:04.786Z,13.30
2023-05-11T18:46:07.158Z,13.20
2023-05-11T18:48:08.944Z,13.30
2023-05-11T18:50:10.917Z,13.30
2023-05-11T18:52:12.729Z,13.20
2023-05-11T18:54:19.972Z,13.20
2023-05-11T18:56:22.518Z,13.20
2023-05-11T18:58:24.347Z,13.10
2023-05-11T19:00:26.108Z,13.10
2023-05-11T19:02:28.194Z,13.10
2023-05-11T19:04:30.575Z,13.00
2023-05-11T19:06:34.121Z,12.80
2023-05-11T19:08:35.875Z,12.90
2023-05-11T19:10:39.180Z,12.80
2023-05-11T19:12:41.935Z,12.70
2023-05-11T19:14:45.301Z,12.70
2023-05-11T19:16:49.174Z,12.70
2023-05-11T19:18:53.725Z,12.60
2023-05-11T19:20:55.585Z,12.60
2023-05-11T19:22:57.263Z,12.50
2023-05-11T19:24:59.046Z,12.50
2023-05-11T19:27:07.133Z,12.40
2023-05-11T19:29:11.762Z,12.30
2023-05-11T19:31:13.556Z,12.30
2023-05-11T19:33:15.478Z,12.20
2023-05-11T19:35:18.463Z,12.20
2023-05-11T19:37:21.613Z,12.20
2023-05-11T19:39:26.946Z,12.20
2023-05-11T19:41:34.547Z,12.10
2023-05-11T19:43:36.230Z,12.10
2023-05-11T19:45:43.590Z,12.00
2023-05-11T19:47:45.424Z,12.00
2023-05-11T19:50:18.040Z,12.00
2023-05-11T19:52:20.231Z,12.00
2023-05-11T19:54:22.381Z,11.90
2023-05-11T19:56:24.369Z,12.00
2023-05-11T19:58:26.420Z,12.00
2023-05-11T20:00:28.179Z,12.00
2023-05-11T20:02:29.925Z,12.00
2023-05-11T20:04:45.322Z,11.90
2023-05-11T20:06:47.192Z,11.90
2023-05-11T20:08:49.085Z,11.90
2023-05-11T20:10:50.822Z,11.90
2023-05-11T20:12:54.347Z,11.80
2023-05-11T20:15:00.573Z,11.80
2023-05-11T20:17:05.170Z,11.80
2023-05-11T20:19:09.394Z,11.80
2023-05-11T20:21:11.313Z,11.80
2023-05-11T20:23:13.330Z,11.80
2023-05-11T20:25:18.622Z,11.80
2023-05-11T20:27:26.879Z,11.80
2023-05-11T20:29:28.709Z,11.80
2023-05-11T20:31:30.628Z,11.80
2023-05-11T20:35:37.409Z,11.80
2023-05-11T20:37:39.467Z,11.80
2023-05-11T20:39:41.375Z,11.80
2023-05-11T20:41:43.262Z,11.80
2023-05-11T20:43:45.363Z,11.80
2023-05-11T20:45:48.892Z,11.70
2023-05-11T20:47:50.792Z,11.80
2023-05-11T20:49:52.597Z,11.70
2023-05-11T20:51:55.036Z,11.70
2023-05-11T20:53:56.999Z,11.80
2023-05-11T20:56:01.843Z,11.80
2023-05-11T20:58:04.982Z,11.80
2023-05-11T21:00:09.228Z,11.80
2023-05-11T21:02:13.881Z,11.80
2023-05-11T21:04:17.214Z,11.70
2023-05-11T21:06:18.927Z,11.80
2023-05-11T21:08:20.661Z,11.90
2023-05-11T21:10:22.338Z,11.90
2023-05-11T21:12:24.056Z,11.90
2023-05-11T21:14:25.824Z,11.90
2023-05-11T21:16:30.050Z,11.80
2023-05-11T21:18:34.922Z,11.80
2023-05-11T21:20:36.891Z,11.80
2023-05-11T21:22:38.809Z,11.80
2023-05-11T21:24:41.157Z,11.80
2023-05-11T21:26:48.020Z,11.70
2023-05-11T21:28:50.182Z,11.70
2023-05-11T21:30:52.466Z,11.70
2023-05-11T21:32:54.245Z,11.70
2023-05-11T21:34:55.852Z,11.70
2023-05-11T21:36:57.592Z,11.70
2023-05-11T21:38:59.214Z,11.70
2023-05-11T21:41:00.829Z,11.60
2023-05-11T21:43:02.448Z,11.60
2023-05-11T21:45:04.398Z,11.60
2023-05-11T21:47:06.269Z,11.70
2023-05-11T21:49:07.942Z,11.70
2023-05-11T21:51:09.596Z,11.70
2023-05-11T21:53:11.273Z,11.60
2023-05-11T21:55:16.384Z,11.60
2023-05-11T21:57:18.992Z,11.60
2023-05-11T21:59:21.121Z,11.60
2023-05-11T22:01:22.878Z,11.60
2023-05-11T22:03:25.601Z,11.60
2023-05-11T22:05:27.437Z,11.60
2023-05-11T22:07:29.091Z,11.60
2023-05-11T22:09:31.564Z,11.70
2023-05-11T22:11:34.596Z,11.70
2023-05-11T22:13:36.335Z,11.60
2023-05-11T22:15:38.332Z,11.70
2023-05-11T22:17:40.105Z,11.60
2023-05-11T22:19:41.714Z,11.60
2023-05-11T22:21:43.686Z,11.60
2023-05-11T22:23:45.318Z,11.60
2023-05-11T22:25:47.212Z,11.60
2023-05-11T22:27:49.006Z,11.60
2023-05-11T22:29:52.134Z,11.60
2023-05-11T22:31:53.822Z,11.60
2023-05-11T22:33:55.448Z,11.50
2023-05-11T22:35:57.471Z,11.50
2023-05-11T22:38:01.521Z,11.50
2023-05-11T22:40:03.895Z,11.50
2023-05-11T22:42:05.692Z,11.50
2023-05-11T22:44:07.827Z,11.40
2023-05-11T22:46:10.538Z,11.50
2023-05-11T22:48:12.281Z,11.50
2023-05-11T22:50:13.985Z,11.50
2023-05-11T22:52:15.979Z,11.50
2023-05-11T22:54:17.626Z,11.40
2023-05-11T22:56:19.804Z,11.50
2023-05-11T22:58:22.672Z,11.50
2023-05-11T23:00:26.765Z,11.50
2023-05-11T23:02:29.972Z,11.50
2023-05-11T23:04:34.562Z,11.40
2023-05-11T23:06:36.719Z,11.40
2023-05-11T23:08:38.366Z,11.40
2023-05-11T23:10:40.012Z,11.40
2023-05-11T23:12:41.629Z,11.40
2023-05-11T23:14:44.258Z,11.40
2023-05-11T23:16:45.938Z,11.40
2023-05-11T23:18:47.730Z,11.40
2023-05-11T23:20:55.261Z,11.50
2023-05-11T23:22:56.837Z,11.50
2023-05-11T23:25:00.329Z,11.50
2023-05-11T23:27:03.309Z,11.40
2023-05-11T23:29:05.044Z,11.40
2023-05-11T23:31:06.755Z,11.40
2023-05-11T23:33:08.929Z,11.40
2023-05-11T23:35:11.913Z,11.40
2023-05-11T23:37:13.557Z,11.30
2023-05-11T23:39:15.190Z,11.30
2023-05-11T23:41:16.937Z,11.30
2023-05-11T23:43:19.360Z,11.30
2023-05-11T23:45:20.954Z,11.30
2023-05-11T23:47:23.457Z,11.40
2023-05-11T23:49:25.914Z,11.40
2023-05-11T23:51:27.510Z,11.40
2023-05-11T23:53:29.163Z,11.30
2023-05-11T23:55:30.936Z,11.30
2023-05-11T23:57:32.598Z,11.40
2023-05-11T23:59:34.182Z,11.40
